Time;durP1;ratioP1;P1;durP2;ratioP2;P2;SDS_P1;SDS_P2;PMS_P1;PMS_P2;Temp;Humidity;BMP_temperature;BMP_pressure;BME280_temperature;BME280_humidity;BME280_pressure;Samples;Min_cycle;Max_cycle;Signal;HPM_P1;HPM_P2
2023/07/23 00:02:16;;;;;;;;;;;;;;;;;;5081312;27;90081;-79
2023/07/23 00:04:42;;;;;;;;;;;;;;;;;;5082322;27;89475;-77
2023/07/23 00:07:07;;;;;;;;;;;;;;;;;;5078617;27;89570;-78
2023/07/23 00:09:32;;;;;;;;;;;;;;;;;;5083764;27;89754;-77
2023/07/23 00:11:57;;;;;;;;;;;;;;;;;;5077842;27;89569;-78
2023/07/23 00:14:22;;;;;;;;;;;;;;;;;;5074483;27;91142;-78
2023/07/23 00:16:48;;;;;;;;;;;;;;;;;;5080360;27;90158;-78
2023/07/23 00:19:19;;;;;;;;;;;;;;;;;;5082077;27;90610;-77
2023/07/23 00:21:44;;;;;;;;;;;;;;;;;;5077147;27;89533;-79
2023/07/23 00:24:09;;;;;;;;;;;;;;;;;;5076548;27;89430;-78
2023/07/23 00:26:34;;;;;;;;;;;;;;;;;;5076556;27;89133;-77
2023/07/23 00:29:00;;;;;;;;;;;;;;;;;;5081132;27;90850;-78
2023/07/23 00:31:25;;;;;;;;;;;;;;;;;;5077274;27;90467;-77
2023/07/23 00:33:50;;;;;;;;;;;;;;;;;;5078021;27;89782;-78
2023/07/23 00:36:15;;;;;;;;;;;;;;;;;;5076955;27;89060;-77
2023/07/23 00:38:41;;;;;;;;;;;;;;;;;;5079758;27;89021;-79
2023/07/23 00:41:06;;;;;;;;;;;;;;;;;;5074232;27;89893;-77
2023/07/23 00:43:31;;;;;;;;;;;;;;;;;;5080277;27;90645;-79
2023/07/23 00:45:57;;;;;;;;;;;;;;;;;;5078139;27;90480;-78
2023/07/23 00:48:22;;;;;;;;;;;;;;;;;;5077700;27;89782;-78
2023/07/23 00:50:48;;;;;;;;;;;;;;;;;;5081357;27;89245;-78
2023/07/23 00:53:13;;;;;;;;;;;;;;;;;;5075113;27;90242;-78
2023/07/23 00:55:38;;;;;;;;;;;;;;;;;;5080012;27;90505;-79
2023/07/23 00:58:04;;;;;;;;;;;;;;;;;;5075058;27;89806;-78
2023/07/23 01:00:29;;;;;;;;;;;;;;;;;;5081671;27;89913;-77
2023/07/23 01:02:54;;;;;;;;;;;;;;;;;;5075054;27;89134;-77
2023/07/23 01:05:19;;;;;;;;;;;;;;;;;;5075779;27;89034;-78
2023/07/23 01:07:46;;;;;;;;;;;;;;;;;;5072934;27;90726;-77
2023/07/23 01:10:12;;;;;;;;;;;;;;;;;;5080493;27;90665;-78
2023/07/23 01:12:39;;;;;;;;;;;;;;;;;;5082314;27;89549;-78
2023/07/23 01:15:06;;;;;;;;;;;;;;;;;;5072865;27;89688;-79
2023/07/23 01:17:31;;;;;;;;;;;;;;;;;;5077163;27;89726;-78
2023/07/23 01:20:06;;;;;;;;;;;;;;;;;;5074753;27;90315;-79
2023/07/23 01:22:33;;;;;;;;;;;;;;;;;;5073439;27;89240;-78
2023/07/23 01:24:58;;;;;;;;;;;;;;;;;;5077370;27;91133;-79
2023/07/23 01:27:23;;;;;;;;;;;;;;;;;;5080436;27;90759;-80
2023/07/23 01:29:48;;;;;;;;;;;;;;;;;;5075522;27;90652;-78
2023/07/23 01:32:14;;;;;;;;;;;;;;;;;;5084311;27;89231;-79
2023/07/23 01:34:39;;;;;;;;;;;;;;;;;;5081749;27;89563;-77
2023/07/23 01:37:04;;;;;;;;;;;;;;;;;;5077961;27;89518;-78
2023/07/23 01:39:32;;;;;;;;;;;;;;;;;;5076907;27;89544;-77
2023/07/23 01:41:57;;;;;;;;;;;;;;;;;;5072743;27;89979;-79
2023/07/23 01:44:22;;;;;;;;;;;;;;;;;;5074151;27;89588;-76
2023/07/23 01:46:48;;;;;;;;;;;;;;;;;;5075303;27;90443;-77
2023/07/23 01:49:13;;;;;;;;;;;;;;;;;;5027177;27;1205183;-78
2023/07/23 01:51:38;;;;;;;;;;;;;;;;;;5078504;27;90195;-77
2023/07/23 01:54:03;;;;;;;;;;;;;;;;;;5074623;27;89765;-77
2023/07/23 01:56:29;;;;;;;;;;;;;;;;;;5079464;27;89076;-77
2023/07/23 01:58:54;;;;;;;;;;;;;;;;;;5077362;27;92455;-78
2023/07/23 02:01:19;;;;;;;;;;;;;;;;;;5083353;27;88988;-77
2023/07/23 02:03:46;;;;;;;;;;;;;;;;;;5078638;27;89135;-78
2023/07/23 02:06:11;;;;;;;;;;;;;;;;;;5074158;27;90696;-79
2023/07/23 02:08:36;;;;;;;;;;;;;;;;;;5077312;27;89484;-77
2023/07/23 02:11:02;;;;;;;;;;;;;;;;;;5077379;27;89101;-79
2023/07/23 02:13:28;;;;;;;;;;;;;;;;;;5074535;27;89538;-77
2023/07/23 02:15:54;;;;;;;;;;;;;;;;;;5076427;27;89245;-78
2023/07/23 02:18:19;;;;;;;;;;;;;;;;;;5075168;27;90861;-78
2023/07/23 02:20:44;;;;;;;;;;;;;;;;;;5075462;27;89313;-78
2023/07/23 02:23:09;;;;;;;;;;;;;;;;;;5076663;27;89813;-79
2023/07/23 02:25:39;;;;;;;;;;;;;;;;;;5074994;27;89078;-79
2023/07/23 02:28:05;;;;;;;;;;;;;;;;;;5074685;27;90184;-78
2023/07/23 02:30:30;;;;;;;;;;;;;;;;;;5081102;27;89439;-79
2023/07/23 02:32:55;;;;;;;;;;;;;;;;;;5079285;27;90001;-78
2023/07/23 02:35:20;;;;;;;;;;;;;;;;;;5081455;27;89672;-77
2023/07/23 02:37:47;;;;;;;;;;;;;;;;;;5077506;27;89543;-80
2023/07/23 02:40:12;;;;;;;;;;;;;;;;;;5077869;27;89667;-78
2023/07/23 02:42:37;;;;;;;;;;;;;;;;;;5069796;27;89181;-78
2023/07/23 02:45:03;;;;;;;;;;;;;;;;;;5077700;27;89870;-78
2023/07/23 02:47:28;;;;;;;;;;;;;;;;;;5076426;27;89717;-78
2023/07/23 02:49:54;;;;;;;;;;;;;;;;;;5074002;27;89670;-78
2023/07/23 02:52:19;;;;;;;;;;;;;;;;;;5074888;27;90175;-78
2023/07/23 02:54:44;;;;;;;;;;;;;;;;;;5072574;27;89848;-78
2023/07/23 02:57:09;;;;;;;;;;;;;;;;;;5076042;27;89446;-78
2023/07/23 02:59:34;;;;;;;;;;;;;;;;;;5082308;27;89627;-78
2023/07/23 03:02:00;;;;;;;;;;;;;;;;;;5077961;27;89178;-78
2023/07/23 03:04:26;;;;;;;;;;;;;;;;;;5075380;27;89617;-77
2023/07/23 03:06:52;;;;;;;;;;;;;;;;;;5080055;27;90141;-79
2023/07/23 03:09:17;;;;;;;;;;;;;;;;;;5074246;27;89459;-78
2023/07/23 03:11:42;;;;;;;;;;;;;;;;;;5074216;27;89042;-79
2023/07/23 03:14:07;;;;;;;;;;;;;;;;;;5074864;27;89411;-77
2023/07/23 03:16:33;;;;;;;;;;;;;;;;;;5079060;27;89509;-77
2023/07/23 03:18:58;;;;;;;;;;;;;;;;;;5072283;27;89761;-78
2023/07/23 03:21:23;;;;;;;;;;;;;;;;;;5076608;27;90297;-78
2023/07/23 03:23:48;;;;;;;;;;;;;;;;;;5074856;27;90106;-79
2023/07/23 03:26:14;;;;;;;;;;;;;;;;;;5080080;27;89116;-79
2023/07/23 03:28:39;;;;;;;;;;;;;;;;;;5077258;27;90129;-80
2023/07/23 03:31:05;;;;;;;;;;;;;;;;;;5079773;27;89471;-78
2023/07/23 03:33:30;;;;;;;;;;;;;;;;;;5073576;27;89324;-78
2023/07/23 03:35:55;;;;;;;;;;;;;;;;;;5078967;27;89203;-77
2023/07/23 03:38:21;;;;;;;;;;;;;;;;;;5077683;27;89468;-77
2023/07/23 03:40:46;;;;;;;;;;;;;;;;;;5072913;27;89504;-79
2023/07/23 03:43:11;;;;;;;;;;;;;;;;;;5074196;27;89767;-79
2023/07/23 03:45:36;;;;;;;;;;;;;;;;;;5074253;27;89655;-77
2023/07/23 03:48:02;;;;;;;;;;;;;;;;;;5072872;27;89862;-78
2023/07/23 03:50:28;;;;;;;;;;;;;;;;;;5074850;27;89823;-77
2023/07/23 03:52:53;;;;;;;;;;;;;;;;;;5080622;27;90527;-78
2023/07/23 03:55:20;;;;;;;;;;;;;;;;;;5077549;27;90718;-78
2023/07/23 03:57:45;;;;;;;;;;;;;;;;;;5071765;27;89701;-77
2023/07/23 04:00:11;;;;;;;;;;;;;;;;;;5073787;27;89312;-77
2023/07/23 04:02:36;;;;;;;;;;;;;;;;;;5085243;27;89900;-77
2023/07/23 04:05:02;;;;;;;;;;;;;;;;;;5078692;27;89914;-78
2023/07/23 04:07:27;;;;;;;;;;;;;;;;;;5076863;27;89479;-79
2023/07/23 04:09:53;;;;;;;;;;;;;;;;;;5074233;27;89671;-77
2023/07/23 04:12:18;;;;;;;;;;;;;;;;;;5071325;27;90333;-77
2023/07/23 04:14:44;;;;;;;;;;;;;;;;;;5074085;27;89474;-80
2023/07/23 04:17:12;;;;;;;;;;;;;;;;;;5076678;27;89653;-77
2023/07/23 04:19:37;;;;;;;;;;;;;;;;;;5074092;27;89478;-79
2023/07/23 04:22:03;;;;;;;;;;;;;;;;;;5070930;27;89438;-78
2023/07/23 04:24:28;;;;;;;;;;;;;;;;;;5078001;27;89520;-79
2023/07/23 04:26:53;;;;;;;;;;;;;;;;;;5075944;27;89737;-78
2023/07/23 04:29:19;;;;;;;;;;;;;;;;;;5072994;27;92872;-78
2023/07/23 04:31:44;;;;;;;;;;;;;;;;;;5073636;27;89521;-78
2023/07/23 04:34:09;;;;;;;;;;;;;;;;;;5075688;27;89247;-79
2023/07/23 04:36:34;;;;;;;;;;;;;;;;;;5079081;27;89480;-79
2023/07/23 04:39:00;;;;;;;;;;;;;;;;;;5076573;27;89744;-77
2023/07/23 04:41:26;;;;;;;;;;;;;;;;;;5084823;27;89195;-79
2023/07/23 04:43:51;;;;;;;;;;;;;;;;;;5080227;27;89693;-77
2023/07/23 04:46:17;;;;;;;;;;;;;;;;;;5080323;27;91667;-78
2023/07/23 04:48:42;;;;;;;;;;;;;;;;;;5074796;27;89575;-80
2023/07/23 04:51:08;;;;;;;;;;;;;;;;;;5079141;27;90493;-79
2023/07/23 04:53:34;;;;;;;;;;;;;;;;;;5079695;27;89605;-78
2023/07/23 04:56:00;;;;;;;;;;;;;;;;;;5076946;27;89315;-79
2023/07/23 04:58:25;;;;;;;;;;;;;;;;;;5076571;27;92102;-77
2023/07/23 05:00:51;;;;;;;;;;;;;;;;;;5079469;27;89101;-78
2023/07/23 05:03:17;;;;;;;;;;;;;;;;;;5079082;27;90682;-78
2023/07/23 05:05:43;;;;;;;;;;;;;;;;;;5075632;27;89305;-78
2023/07/23 05:08:09;;;;;;;;;;;;;;;;;;5081843;27;91026;-77
2023/07/23 05:10:34;;;;;;;;;;;;;;;;;;5072492;27;89299;-77
2023/07/23 05:12:59;;;;;;;;;;;;;;;;;;5079477;27;89118;-78
2023/07/23 05:15:24;;;;;;;;;;;;;;;;;;5079743;27;89578;-78
2023/07/23 05:17:50;;;;;;;;;;;;;;;;;;5077950;27;89148;-77
2023/07/23 05:20:15;;;;;;;;;;;;;;;;;;5080365;27;90012;-78
2023/07/23 05:22:41;;;;;;;;;;;;;;;;;;5073673;27;90406;-77
2023/07/23 05:25:07;;;;;;;;;;;;;;;;;;5082333;27;89527;-79
2023/07/23 05:27:32;;;;;;;;;;;;;;;;;;5079623;27;89100;-79
2023/07/23 05:29:58;;;;;;;;;;;;;;;;;;5078121;27;90076;-79
2023/07/23 05:32:23;;;;;;;;;;;;;;;;;;5080566;27;89461;-79
2023/07/23 05:34:48;;;;;;;;;;;;;;;;;;5075394;27;90642;-79
2023/07/23 05:37:14;;;;;;;;;;;;;;;;;;5078634;27;89632;-79
2023/07/23 05:39:39;;;;;;;;;;;;;;;;;;5077845;27;89594;-80
2023/07/23 05:42:04;;;;;;;;;;;;;;;;;;5080205;27;89548;-80
2023/07/23 05:44:31;;;;;;;;;;;;;;;;;;5078249;27;91016;-77
2023/07/23 05:46:56;;;;;;;;;;;;;;;;;;5077245;27;89602;-79
2023/07/23 05:49:21;;;;;;;;;;;;;;;;;;5077193;27;89439;-78
2023/07/23 05:51:47;;;;;;;;;;;;;;;;;;5079291;27;89494;-77
2023/07/23 05:54:12;;;;;;;;;;;;;;;;;;5078248;27;90555;-78
2023/07/23 05:56:37;;;;;;;;;;;;;;;;;;5073685;27;89948;-79
2023/07/23 05:59:03;;;;;;;;;;;;;;;;;;5071557;27;89170;-78
2023/07/23 06:01:28;;;;;;;;;;;;;;;;;;5079166;27;90153;-78
2023/07/23 06:03:53;;;;;;;;;;;;;;;;;;5080505;27;90567;-81
2023/07/23 06:06:18;;;;;;;;;;;;;;;;;;5079024;27;89475;-78
2023/07/23 06:08:44;;;;;;;;;;;;;;;;;;5081190;27;89722;-80
2023/07/23 06:11:09;;;;;;;;;;;;;;;;;;5079210;27;89645;-79
2023/07/23 06:13:34;;;;;;;;;;;;;;;;;;5078713;27;89456;-79
2023/07/23 06:15:59;;;;;;;;;;;;;;;;;;5073012;27;89780;-78
2023/07/23 06:18:25;;;;;;;;;;;;;;;;;;5076050;27;89795;-77
2023/07/23 06:20:50;;;;;;;;;;;;;;;;;;5076063;27;89529;-76
2023/07/23 06:23:15;;;;;;;;;;;;;;;;;;5080937;27;89752;-77
2023/07/23 06:25:40;;;;;;;;;;;;;;;;;;5073964;27;91344;-78
2023/07/23 06:28:06;;;;;;;;;;;;;;;;;;5074865;27;89864;-76
2023/07/23 06:30:33;;;;;;;;;;;;;;;;;;5072595;27;90288;-76
2023/07/23 06:32:58;;;;;;;;;;;;;;;;;;5079082;27;90418;-77
2023/07/23 06:35:23;;;;;;;;;;;;;;;;;;5074568;27;90724;-77
2023/07/23 06:37:48;;;;;;;;;;;;;;;;;;5074953;27;90495;-78
2023/07/23 06:40:13;;;;;;;;;;;;;;;;;;5077253;27;90215;-78
2023/07/23 06:42:39;;;;;;;;;;;;;;;;;;5075515;27;89861;-77
2023/07/23 06:45:04;;;;;;;;;;;;;;;;;;5076927;27;89798;-78
2023/07/23 06:47:29;;;;;;;;;;;;;;;;;;5075948;27;90243;-78
2023/07/23 06:49:55;;;;;;;;;;;;;;;;;;5075175;27;89425;-77
2023/07/23 06:52:20;;;;;;;;;;;;;;;;;;5079961;27;89797;-78
2023/07/23 06:54:48;;;;;;;;;;;;;;;;;;5075498;27;89486;-78
2023/07/23 06:57:13;;;;;;;;;;;;;;;;;;5074613;27;90614;-78
2023/07/23 06:59:38;;;;;;;;;;;;;;;;;;5074743;27;92557;-78
2023/07/23 07:02:04;;;;;;;;;;;;;;;;;;5079904;27;89757;-79
2023/07/23 07:04:29;;;;;;;;;;;;;;;;;;5080640;27;89218;-78
2023/07/23 07:06:54;;;;;;;;;;;;;;;;;;5077031;27;92374;-75
2023/07/23 07:09:19;;;;;;;;;;;;;;;;;;5071884;27;89434;-77
2023/07/23 07:11:44;;;;;;;;;;;;;;;;;;5076165;27;89932;-77
2023/07/23 07:14:10;;;;;;;;;;;;;;;;;;5076503;27;89995;-78
2023/07/23 07:16:35;;;;;;;;;;;;;;;;;;5076937;27;90037;-78
2023/07/23 07:19:00;;;;;;;;;;;;;;;;;;5071928;27;89903;-78
2023/07/23 07:21:25;;;;;;;;;;;;;;;;;;5079289;27;89221;-77
2023/07/23 07:23:50;;;;;;;;;;;;;;;;;;5071586;27;89074;-77
2023/07/23 07:26:16;;;;;;;;;;;;;;;;;;5073939;27;89262;-78
2023/07/23 07:28:41;;;;;;;;;;;;;;;;;;5074329;27;89702;-77
2023/07/23 07:31:06;;;;;;;;;;;;;;;;;;5073198;27;89212;-77
2023/07/23 07:33:31;;;;;;;;;;;;;;;;;;5071182;27;89625;-78
2023/07/23 07:35:57;;;;;;;;;;;;;;;;;;5069193;27;89191;-78
2023/07/23 07:38:23;;;;;;;;;;;;;;;;;;5077277;27;90051;-77
2023/07/23 07:40:51;;;;;;;;;;;;;;;;;;5076551;27;90764;-77
2023/07/23 07:43:17;;;;;;;;;;;;;;;;;;5081596;27;90040;-78
2023/07/23 07:45:45;;;;;;;;;;;;;;;;;;5072844;27;89535;-78
2023/07/23 07:48:11;;;;;;;;;;;;;;;;;;5073136;27;90836;-77
2023/07/23 07:50:36;;;;;;;;;;;;;;;;;;5076383;27;89177;-77
2023/07/23 07:53:01;;;;;;;;;;;;;;;;;;5072804;27;89588;-77
2023/07/23 07:55:26;;;;;;;;;;;;;;;;;;5072738;27;89341;-77
2023/07/23 07:57:51;;;;;;;;;;;;;;;;;;5070004;27;89639;-77
2023/07/23 08:00:17;;;;;;;;;;;;;;;;;;5074269;27;89564;-77
2023/07/23 08:02:42;;;;;;;;;;;;;;;;;;5076521;27;89537;-77
2023/07/23 08:05:08;;;;;;;;;;;;;;;;;;5074943;27;91121;-78
2023/07/23 08:07:34;;;;;;;;;;;;;;;;;;5076197;27;90900;-78
2023/07/23 08:10:00;;;;;;;;;;;;;;;;;;5080378;27;91072;-77
2023/07/23 08:12:26;;;;;;;;;;;;;;;;;;5076809;27;89478;-77
2023/07/23 08:14:52;;;;;;;;;;;;;;;;;;5077672;27;89233;-77
2023/07/23 08:17:18;;;;;;;;;;;;;;;;;;5075162;27;89283;-77
2023/07/23 08:19:43;;;;;;;;;;;;;;;;;;5084379;27;92349;-77
2023/07/23 08:22:09;;;;;;;;;;;;;;;;;;5079979;27;90282;-78
2023/07/23 08:24:34;;;;;;;;;;;;;;;;;;5079725;27;89549;-76
2023/07/23 08:27:02;;;;;;;;;;;;;;;;;;5075323;27;89034;-77
2023/07/23 08:29:28;;;;;;;;;;;;;;;;;;5074423;27;90100;-77
2023/07/23 08:31:55;;;;;;;;;;;;;;;;;;5080360;27;90963;-78
2023/07/23 08:34:22;;;;;;;;;;;;;;;;;;5076033;27;89678;-78
2023/07/23 08:36:48;;;;;;;;;;;;;;;;;;5075443;27;89066;-78
2023/07/23 08:39:13;;;;;;;;;;;;;;;;;;5080082;27;90738;-79
2023/07/23 08:41:53;;;;;;;;;;;;;;;;;;5080543;27;90623;-76
2023/07/23 08:44:37;;;;;;;;;;;;;;;;;;5076935;27;89514;-78
2023/07/23 08:47:12;;;;;;;;;;;;;;;;;;5078462;27;89373;-78
2023/07/23 08:49:41;;;;;;;;;;;;;;;;;;5078583;27;90575;-77
2023/07/23 08:52:06;;;;;;;;;;;;;;;;;;5076487;27;89685;-77
2023/07/23 08:54:31;;;;;;;;;;;;;;;;;;5075974;27;89056;-77
2023/07/23 08:56:57;;;;;;;;;;;;;;;;;;5080288;27;89409;-77
2023/07/23 08:59:23;;;;;;;;;;;;;;;;;;5080495;27;89596;-77
2023/07/23 09:01:49;;;;;;;;;;;;;;;;;;5078841;27;92151;-78
2023/07/23 09:04:14;;;;;;;;;;;;;;;;;;5077963;27;89068;-77
2023/07/23 09:06:42;;;;;;;;;;;;;;;;;;5083792;27;90694;-78
2023/07/23 09:09:08;;;;;;;;;;;;;;;;;;5083268;27;89063;-78
2023/07/23 09:11:34;;;;;;;;;;;;;;;;;;5077586;27;89685;-77
2023/07/23 09:14:00;;;;;;;;;;;;;;;;;;5085250;27;89496;-77
2023/07/23 09:16:25;;;;;;;;;;;;;;;;;;5082625;27;89633;-77
2023/07/23 09:18:51;;;;;;;;;;;;;;;;;;5076017;27;89738;-78
2023/07/23 09:21:21;;;;;;;;;;;;;;;;;;5079834;27;89243;-77
2023/07/23 09:23:49;;;;;;;;;;;;;;;;;;5078252;27;89389;-77
2023/07/23 09:26:18;;;;;;;;;;;;;;;;;;5081493;27;89469;-77
2023/07/23 09:28:44;;;;;;;;;;;;;;;;;;5071573;27;89674;-77
2023/07/23 09:31:10;;;;;;;;;;;;;;;;;;5077327;27;90708;-77
2023/07/23 09:33:36;;;;;;;;;;;;;;;;;;5076691;27;90272;-77
2023/07/23 09:36:02;;;;;;;;;;;;;;;;;;5076993;27;89712;-77
2023/07/23 09:38:28;;;;;;;;;;;;;;;;;;5077039;27;89129;-78
2023/07/23 09:40:54;;;;;;;;;;;;;;;;;;5076747;27;90421;-77
2023/07/23 09:43:20;;;;;;;;;;;;;;;;;;5073588;27;89821;-77
2023/07/23 09:45:46;;;;;;;;;;;;;;;;;;5079447;27;89549;-76
2023/07/23 09:48:13;;;;;;;;;;;;;;;;;;5084384;27;89595;-78
2023/07/23 09:50:38;;;;;;;;;;;;;;;;;;5077644;27;90072;-78
2023/07/23 09:53:07;;;;;;;;;;;;;;;;;;5076393;27;89262;-79
2023/07/23 09:55:32;;;;;;;;;;;;;;;;;;5075090;27;89761;-78
2023/07/23 09:57:58;;;;;;;;;;;;;;;;;;5073927;27;89790;-78
2023/07/23 10:00:24;;;;;;;;;;;;;;;;;;5079390;27;89219;-78
2023/07/23 10:02:50;;;;;;;;;;;;;;;;;;5077282;27;90409;-74
2023/07/23 10:05:17;;;;;;;;;;;;;;;;;;5077050;27;89683;-75
2023/07/23 10:07:44;;;;;;;;;;;;;;;;;;5080430;27;89158;-75
2023/07/23 10:10:11;;;;;;;;;;;;;;;;;;5081898;27;89591;-74
2023/07/23 10:12:37;;;;;;;;;;;;;;;;;;5080312;27;89695;-75
2023/07/23 10:15:02;;;;;;;;;;;;;;;;;;5071974;27;89807;-74
2023/07/23 10:17:28;;;;;;;;;;;;;;;;;;5079403;27;89506;-74
2023/07/23 10:19:54;;;;;;;;;;;;;;;;;;5074859;27;90371;-75
2023/07/23 10:22:22;;;;;;;;;;;;;;;;;;5076188;27;89064;-75
2023/07/23 10:24:51;;;;;;;;;;;;;;;;;;5076785;27;89672;-76
2023/07/23 10:27:17;;;;;;;;;;;;;;;;;;5080975;27;90379;-75
2023/07/23 10:30:08;;;;;;;;;;;;;;;;;;5080852;27;89987;-75
2023/07/23 10:32:33;;;;;;;;;;;;;;;;;;5076143;27;89902;-75
2023/07/23 10:34:58;;;;;;;;;;;;;;;;;;5078054;27;91053;-74
2023/07/23 10:37:23;;;;;;;;;;;;;;;;;;5081760;27;90751;-76
2023/07/23 10:39:50;;;;;;;;;;;;;;;;;;5076464;27;89713;-77
2023/07/23 10:42:34;;;;;;;;;;;;;;;;;;5076472;27;90616;-73
2023/07/23 10:45:22;;;;;;;;;;;;;;;;;;5077688;27;89853;-73
2023/07/23 10:47:47;;;;;;;;;;;;;;;;;;5074004;27;90804;-73
2023/07/23 10:50:14;;;;;;;;;;;;;;;;;;5076505;27;90009;-73
2023/07/23 10:52:43;;;;;;;;;;;;;;;;;;5075687;27;91060;-74
2023/07/23 10:55:08;;;;;;;;;;;;;;;;;;5074161;27;90145;-73
2023/07/23 10:57:37;;;;;;;;;;;;;;;;;;5077088;27;89948;-75
2023/07/23 11:00:04;;;;;;;;;;;;;;;;;;5074194;27;90151;-75
2023/07/23 11:02:30;;;;;;;;;;;;;;;;;;5074066;27;89711;-73
2023/07/23 11:04:56;;;;;;;;;;;;;;;;;;5076830;27;89840;-73
2023/07/23 11:07:25;;;;;;;;;;;;;;;;;;5080914;27;90205;-74
2023/07/23 11:09:53;;;;;;;;;;;;;;;;;;5076159;27;89764;-75
2023/07/23 11:12:19;;;;;;;;;;;;;;;;;;5075783;27;89769;-74
2023/07/23 11:14:44;;;;;;;;;;;;;;;;;;5083248;27;90833;-74
2023/07/23 11:17:10;;;;;;;;;;;;;;;;;;5073696;27;89534;-75
2023/07/23 11:19:35;;;;;;;;;;;;;;;;;;5078348;27;89685;-74
2023/07/23 11:22:04;;;;;;;;;;;;;;;;;;5081332;27;89837;-74
2023/07/23 11:24:30;;;;;;;;;;;;;;;;;;5075663;27;91044;-74
2023/07/23 11:26:57;;;;;;;;;;;;;;;;;;5074803;27;89628;-74
2023/07/23 11:29:25;;;;;;;;;;;;;;;;;;5083261;27;89590;-73
2023/07/23 11:31:51;;;;;;;;;;;;;;;;;;5076166;27;90696;-74
2023/07/23 11:34:16;;;;;;;;;;;;;;;;;;5076801;27;89675;-75
2023/07/23 11:36:42;;;;;;;;;;;;;;;;;;5079696;27;89357;-75
2023/07/23 11:39:07;;;;;;;;;;;;;;;;;;5080337;27;89088;-75
2023/07/23 11:41:33;;;;;;;;;;;;;;;;;;5082478;27;89578;-74
2023/07/23 11:44:03;;;;;;;;;;;;;;;;;;5081873;27;91279;-74
2023/07/23 11:46:29;;;;;;;;;;;;;;;;;;5085266;27;92235;-74
2023/07/23 11:48:54;;;;;;;;;;;;;;;;;;5081767;27;89922;-75
2023/07/23 11:51:21;;;;;;;;;;;;;;;;;;5076139;27;90570;-74
2023/07/23 11:53:48;;;;;;;;;;;;;;;;;;5080646;27;89220;-75
2023/07/23 11:56:14;;;;;;;;;;;;;;;;;;5077980;27;89935;-75
2023/07/23 11:58:40;;;;;;;;;;;;;;;;;;5079931;27;89283;-74
2023/07/23 12:01:06;;;;;;;;;;;;;;;;;;5078971;27;89122;-75
2023/07/23 12:03:33;;;;;;;;;;;;;;;;;;5076503;27;89817;-74
2023/07/23 12:05:59;;;;;;;;;;;;;;;;;;5076975;27;89201;-75
2023/07/23 12:08:27;;;;;;;;;;;;;;;;;;5077057;27;90077;-75
2023/07/23 12:10:52;;;;;;;;;;;;;;;;;;5079184;27;89552;-74
2023/07/23 12:13:18;;;;;;;;;;;;;;;;;;5074761;27;91618;-74
2023/07/23 12:15:47;;;;;;;;;;;;;;;;;;5076285;27;90698;-75
2023/07/23 12:18:13;;;;;;;;;;;;;;;;;;5081091;27;89782;-74
2023/07/23 12:20:39;;;;;;;;;;;;;;;;;;5078349;27;89792;-76
2023/07/23 12:23:05;;;;;;;;;;;;;;;;;;5077674;27;89549;-74
2023/07/23 12:25:30;;;;;;;;;;;;;;;;;;5080128;27;89176;-74
2023/07/23 12:27:55;;;;;;;;;;;;;;;;;;5078943;27;89864;-74
2023/07/23 12:30:20;;;;;;;;;;;;;;;;;;5077380;27;89544;-74
2023/07/23 12:32:46;;;;;;;;;;;;;;;;;;5075738;27;89992;-75
2023/07/23 12:35:11;;;;;;;;;;;;;;;;;;5078741;27;89749;-74
2023/07/23 12:37:37;;;;;;;;;;;;;;;;;;5076905;27;89194;-76
2023/07/23 12:40:04;;;;;;;;;;;;;;;;;;5086854;27;90147;-77
2023/07/23 12:42:29;;;;;;;;;;;;;;;;;;5079928;27;89912;-77
2023/07/23 12:44:55;;;;;;;;;;;;;;;;;;5077749;27;89491;-76
2023/07/23 12:47:20;;;;;;;;;;;;;;;;;;5081623;27;89090;-76
2023/07/23 12:49:46;;;;;;;;;;;;;;;;;;5075821;27;89762;-76
2023/07/23 12:52:11;;;;;;;;;;;;;;;;;;5081606;27;89279;-78
2023/07/23 12:54:37;;;;;;;;;;;;;;;;;;5076684;27;90074;-76
2023/07/23 12:57:03;;;;;;;;;;;;;;;;;;5074921;27;89588;-78
2023/07/23 12:59:28;;;;;;;;;;;;;;;;;;5077920;27;90144;-76
2023/07/23 13:01:53;;;;;;;;;;;;;;;;;;5080136;27;90423;-76
2023/07/23 13:04:18;;;;;;;;;;;;;;;;;;5079813;27;90501;-77
2023/07/23 13:06:44;;;;;;;;;;;;;;;;;;5076320;27;90110;-77
2023/07/23 13:09:09;;;;;;;;;;;;;;;;;;5075039;27;89705;-77
2023/07/23 13:11:34;;;;;;;;;;;;;;;;;;5080832;27;89595;-79
2023/07/23 13:14:00;;;;;;;;;;;;;;;;;;5077658;27;89586;-76
2023/07/23 13:16:25;;;;;;;;;;;;;;;;;;5076193;27;89490;-77
2023/07/23 13:18:50;;;;;;;;;;;;;;;;;;5078746;27;89231;-77
2023/07/23 13:21:15;;;;;;;;;;;;;;;;;;5076521;27;90179;-77
2023/07/23 13:23:40;;;;;;;;;;;;;;;;;;5077866;27;89442;-77
2023/07/23 13:26:06;;;;;;;;;;;;;;;;;;5076244;27;89776;-78
2023/07/23 13:28:31;;;;;;;;;;;;;;;;;;5079741;27;90591;-78
2023/07/23 13:30:58;;;;;;;;;;;;;;;;;;5077010;27;89535;-78
2023/07/23 13:33:23;;;;;;;;;;;;;;;;;;5079431;27;89905;-78
2023/07/23 13:35:48;;;;;;;;;;;;;;;;;;5082581;27;90031;-78
2023/07/23 13:38:13;;;;;;;;;;;;;;;;;;5078826;27;90237;-78
2023/07/23 13:40:41;;;;;;;;;;;;;;;;;;5076559;27;90064;-78
2023/07/23 13:43:07;;;;;;;;;;;;;;;;;;5083026;27;89383;-77
2023/07/23 13:45:32;;;;;;;;;;;;;;;;;;5077253;27;89646;-77
2023/07/23 13:47:57;;;;;;;;;;;;;;;;;;5076445;27;90795;-78
2023/07/23 13:50:23;;;;;;;;;;;;;;;;;;5075322;27;89702;-77
2023/07/23 13:52:48;;;;;;;;;;;;;;;;;;5078822;27;89662;-77
2023/07/23 13:55:13;;;;;;;;;;;;;;;;;;5076414;27;90440;-78
2023/07/23 13:57:38;;;;;;;;;;;;;;;;;;5076160;27;90678;-77
2023/07/23 14:00:04;;;;;;;;;;;;;;;;;;5072130;27;89155;-77
2023/07/23 14:02:29;;;;;;;;;;;;;;;;;;5075903;27;90509;-77
2023/07/23 14:04:55;;;;;;;;;;;;;;;;;;5071753;27;89985;-78
2023/07/23 14:07:20;;;;;;;;;;;;;;;;;;5083207;27;89992;-78
2023/07/23 14:09:45;;;;;;;;;;;;;;;;;;5077532;27;89730;-78
2023/07/23 14:12:10;;;;;;;;;;;;;;;;;;5075933;27;89134;-78
2023/07/23 14:14:36;;;;;;;;;;;;;;;;;;5082988;27;92201;-78
2023/07/23 14:17:01;;;;;;;;;;;;;;;;;;5075279;27;91183;-78
2023/07/23 14:19:26;;;;;;;;;;;;;;;;;;5077566;27;89076;-78
2023/07/23 14:21:52;;;;;;;;;;;;;;;;;;5078380;27;90131;-77
2023/07/23 14:24:19;;;;;;;;;;;;;;;;;;5075356;27;89320;-77
2023/07/23 14:26:45;;;;;;;;;;;;;;;;;;5081571;27;89211;-77
2023/07/23 14:29:10;;;;;;;;;;;;;;;;;;5078557;27;90546;-78
2023/07/23 14:31:35;;;;;;;;;;;;;;;;;;5076753;27;89181;-78
2023/07/23 14:34:00;;;;;;;;;;;;;;;;;;5084135;27;89700;-78
2023/07/23 14:36:26;;;;;;;;;;;;;;;;;;5074924;27;89126;-78
2023/07/23 14:38:51;;;;;;;;;;;;;;;;;;5075741;27;89367;-77
2023/07/23 14:41:16;;;;;;;;;;;;;;;;;;5081275;27;89581;-78
2023/07/23 14:43:42;;;;;;;;;;;;;;;;;;5081629;27;90388;-78
2023/07/23 14:46:07;;;;;;;;;;;;;;;;;;5075567;27;89108;-76
2023/07/23 14:48:32;;;;;;;;;;;;;;;;;;5083962;27;89495;-78
2023/07/23 14:50:57;;;;;;;;;;;;;;;;;;5077900;27;88978;-78
2023/07/23 14:53:23;;;;;;;;;;;;;;;;;;5071692;27;90143;-78
2023/07/23 14:55:48;;;;;;;;;;;;;;;;;;5081361;27;89715;-78
2023/07/23 14:58:13;;;;;;;;;;;;;;;;;;5077768;27;89855;-78
2023/07/23 15:00:44;;;;;;;;;;;;;;;;;;5073150;27;89513;-77
2023/07/23 15:03:13;;;;;;;;;;;;;;;;;;5074650;27;90368;-78
2023/07/23 15:05:38;;;;;;;;;;;;;;;;;;5076450;27;89153;-78
2023/07/23 15:08:04;;;;;;;;;;;;;;;;;;5074499;27;89744;-78
2023/07/23 15:10:29;;;;;;;;;;;;;;;;;;5082685;27;89289;-77
2023/07/23 15:12:54;;;;;;;;;;;;;;;;;;5077741;27;89536;-77
2023/07/23 15:15:19;;;;;;;;;;;;;;;;;;5076368;27;89195;-77
2023/07/23 15:17:45;;;;;;;;;;;;;;;;;;5080358;27;89112;-78
2023/07/23 15:20:10;;;;;;;;;;;;;;;;;;5081335;27;89500;-78
2023/07/23 15:22:36;;;;;;;;;;;;;;;;;;5079521;27;90371;-77
2023/07/23 15:25:02;;;;;;;;;;;;;;;;;;5075437;27;89927;-78
2023/07/23 15:27:30;;;;;;;;;;;;;;;;;;5078426;27;90717;-79
2023/07/23 15:29:56;;;;;;;;;;;;;;;;;;5073263;27;89827;-77
2023/07/23 15:32:21;;;;;;;;;;;;;;;;;;5080178;27;89716;-76
2023/07/23 15:34:47;;;;;;;;;;;;;;;;;;5070177;27;92166;-78
2023/07/23 15:37:12;;;;;;;;;;;;;;;;;;5074446;27;89370;-77
2023/07/23 15:39:38;;;;;;;;;;;;;;;;;;5079490;27;90546;-77
2023/07/23 15:42:04;;;;;;;;;;;;;;;;;;5078728;27;90753;-77
2023/07/23 15:44:29;;;;;;;;;;;;;;;;;;5074558;27;89369;-78
2023/07/23 15:46:54;;;;;;;;;;;;;;;;;;5077763;27;89551;-78
2023/07/23 15:49:20;;;;;;;;;;;;;;;;;;5075221;27;90392;-78
2023/07/23 15:51:45;;;;;;;;;;;;;;;;;;5072980;27;90353;-78
2023/07/23 15:54:10;;;;;;;;;;;;;;;;;;5077467;27;89494;-78
2023/07/23 15:56:36;;;;;;;;;;;;;;;;;;5072942;27;89781;-78
2023/07/23 15:59:02;;;;;;;;;;;;;;;;;;5077665;27;90049;-78
2023/07/23 16:01:27;;;;;;;;;;;;;;;;;;5073977;27;92049;-78
2023/07/23 16:03:52;;;;;;;;;;;;;;;;;;5071630;27;91155;-79
2023/07/23 16:06:17;;;;;;;;;;;;;;;;;;5074196;27;89474;-78
2023/07/23 16:08:43;;;;;;;;;;;;;;;;;;5077018;27;89520;-78
2023/07/23 16:11:08;;;;;;;;;;;;;;;;;;5075927;27;90102;-78
2023/07/23 16:13:33;;;;;;;;;;;;;;;;;;5076090;27;89581;-78
2023/07/23 16:15:58;;;;;;;;;;;;;;;;;;5077599;27;90549;-78
2023/07/23 16:18:24;;;;;;;;;;;;;;;;;;5078272;27;89507;-78
2023/07/23 16:20:49;;;;;;;;;;;;;;;;;;5077201;27;89857;-78
2023/07/23 16:23:14;;;;;;;;;;;;;;;;;;5071647;27;89480;-78
2023/07/23 16:25:43;;;;;;;;;;;;;;;;;;5075251;27;89831;-78
2023/07/23 16:28:10;;;;;;;;;;;;;;;;;;5073670;27;90551;-77
2023/07/23 16:30:35;;;;;;;;;;;;;;;;;;5079453;27;89052;-77
2023/07/23 16:33:01;;;;;;;;;;;;;;;;;;5081441;27;89506;-78
2023/07/23 16:35:26;;;;;;;;;;;;;;;;;;5083678;27;90322;-77
2023/07/23 16:37:52;;;;;;;;;;;;;;;;;;5080632;27;89496;-78